Time;durP1;ratioP1;P1;durP2;ratioP2;P2;SDS_P1;SDS_P2;PMS_P1;PMS_P2;Temp;Humidity;BMP_temperature;BMP_pressure;BME280_temperature;BME280_humidity;BME280_pressure;Samples;Min_cycle;Max_cycle;Signal;HPM_P1;HPM_P2
2022/10/18 00:00:30;;;;;;;92.38;30.55;;;;;;;;;;5054864;28;20492;-59
2022/10/18 00:02:57;;;;;;;72.50;30.00;;;;;;;;;;5063512;28;20040;-60
2022/10/18 00:05:23;;;;;;;116.38;33.42;;;;;;;;;;5055091;28;20086;-60
2022/10/18 00:07:50;;;;;;;105.68;32.10;;;;;;;;;;5054459;28;20052;-60
2022/10/18 00:10:17;;;;;;;93.15;31.25;;;;;;;;;;5054832;28;20041;-60
2022/10/18 00:12:44;;;;;;;180.40;37.13;;;;;;;;;;5054345;28;20036;-60
2022/10/18 00:15:11;;;;;;;105.63;33.75;;;;;;;;;;5052465;28;20033;-60
2022/10/18 00:17:38;;;;;;;75.05;32.20;;;;;;;;;;5053375;28;20045;-60
2022/10/18 00:20:05;;;;;;;112.55;35.83;;;;;;;;;;5054290;28;20401;-59
2022/10/18 00:22:33;;;;;;;89.90;33.97;;;;;;;;;;5054305;28;20108;-59
2022/10/18 00:25:00;;;;;;;80.47;31.52;;;;;;;;;;5056122;28;20044;-60
2022/10/18 00:27:29;;;;;;;161.10;38.53;;;;;;;;;;5069871;28;20036;-60
2022/10/18 00:29:56;;;;;;;98.63;34.67;;;;;;;;;;5051175;28;20080;-60
2022/10/18 00:32:22;;;;;;;88.32;32.60;;;;;;;;;;5054599;28;20043;-61
2022/10/18 00:34:49;;;;;;;125.72;35.78;;;;;;;;;;5054071;28;20041;-61
2022/10/18 00:37:16;;;;;;;107.38;36.95;;;;;;;;;;5053914;28;20500;-61
2022/10/18 00:39:42;;;;;;;123.53;36.38;;;;;;;;;;5054288;28;20684;-60
2022/10/18 00:42:16;;;;;;;124.25;37.17;;;;;;;;;;5050745;28;20100;-59
2022/10/18 00:44:43;;;;;;;125.32;37.58;;;;;;;;;;5052667;28;20060;-60
2022/10/18 00:47:10;;;;;;;117.68;38.22;;;;;;;;;;5053698;28;20045;-59
2022/10/18 00:49:37;;;;;;;116.53;37.47;;;;;;;;;;5060436;28;20045;-60
2022/10/18 00:52:08;;;;;;;141.32;38.97;;;;;;;;;;5054061;28;20048;-60
2022/10/18 00:54:36;;;;;;;119.03;37.58;;;;;;;;;;5054351;28;20123;-60
2022/10/18 00:57:04;;;;;;;92.30;37.05;;;;;;;;;;5049966;28;20041;-60
2022/10/18 00:59:30;;;;;;;101.93;37.42;;;;;;;;;;5055921;28;20049;-60
2022/10/18 01:01:57;;;;;;;139.27;40.25;;;;;;;;;;5057521;28;20564;-60
2022/10/18 01:04:24;;;;;;;113.82;36.95;;;;;;;;;;5052309;28;20051;-59
2022/10/18 01:06:59;;;;;;;124.85;37.58;;;;;;;;;;5053817;28;20032;-59
2022/10/18 01:09:30;;;;;;;122.97;36.30;;;;;;;;;;5052374;28;20037;-59
2022/10/18 01:12:00;;;;;;;93.22;35.90;;;;;;;;;;5050204;28;20504;-59
2022/10/18 01:14:41;;;;;;;107.05;37.58;;;;;;;;;;5053975;28;20045;-59
2022/10/18 01:17:18;;;;;;;141.20;38.83;;;;;;;;;;5053149;28;20123;-59
2022/10/18 01:19:44;;;;;;;120.47;37.40;;;;;;;;;;5059130;28;20037;-59
2022/10/18 01:22:16;;;;;;;117.50;35.63;;;;;;;;;;5053402;28;20485;-58
2022/10/18 01:24:48;;;;;;;132.75;37.25;;;;;;;;;;5053409;28;20040;-58
2022/10/18 01:27:18;;;;;;;133.25;36.22;;;;;;;;;;5065542;28;20040;-58
2022/10/18 01:29:53;;;;;;;87.13;33.95;;;;;;;;;;5052089;28;20055;-58
2022/10/18 01:32:22;;;;;;;111.28;34.58;;;;;;;;;;5052789;28;20051;-60
2022/10/18 01:34:50;;;;;;;116.50;35.00;;;;;;;;;;5053006;28;20072;-59
2022/10/18 01:37:18;;;;;;;94.57;34.08;;;;;;;;;;5052099;28;20033;-59
2022/10/18 01:39:46;;;;;;;88.95;33.50;;;;;;;;;;5053199;28;20397;-60
2022/10/18 01:42:14;;;;;;;105.93;31.40;;;;;;;;;;5050087;28;20577;-60
2022/10/18 01:44:41;;;;;;;122.00;31.58;;;;;;;;;;5071497;28;20070;-59
2022/10/18 01:47:09;;;;;;;82.30;29.48;;;;;;;;;;5058748;28;20169;-59
2022/10/18 01:49:36;;;;;;;88.45;31.40;;;;;;;;;;5052891;28;20544;-59
2022/10/18 01:52:02;;;;;;;84.82;29.00;;;;;;;;;;5051998;28;20041;-59
2022/10/18 01:54:38;;;;;;;128.18;33.92;;;;;;;;;;5051704;28;20094;-59
2022/10/18 01:57:05;;;;;;;78.78;29.58;;;;;;;;;;5053676;28;20568;-58
2022/10/18 01:59:40;;;;;;;82.85;30.85;;;;;;;;;;5053330;28;20041;-58
2022/10/18 02:02:25;;;;;;;113.15;31.85;;;;;;;;;;5053307;28;20044;-58
2022/10/18 02:05:11;;;;;;;89.28;30.13;;;;;;;;;;5052658;28;20053;-58
2022/10/18 02:07:40;;;;;;;91.28;30.83;;;;;;;;;;5052884;28;20461;-58
2022/10/18 02:10:09;;;;;;;107.55;30.42;;;;;;;;;;5052150;28;20040;-58
2022/10/18 02:12:39;;;;;;;119.93;31.63;;;;;;;;;;5053087;28;20037;-58
2022/10/18 02:15:06;;;;;;;93.40;29.63;;;;;;;;;;5060832;28;20488;-58
2022/10/18 02:17:33;;;;;;;74.53;29.08;;;;;;;;;;5052353;28;20421;-58
2022/10/18 02:20:01;;;;;;;97.72;29.25;;;;;;;;;;5052071;28;20044;-57
2022/10/18 02:22:29;;;;;;;78.70;28.40;;;;;;;;;;5052670;28;20420;-57
2022/10/18 02:24:58;;;;;;;82.40;28.38;;;;;;;;;;5053065;28;20045;-60
2022/10/18 02:27:25;;;;;;;79.07;28.08;;;;;;;;;;5068584;28;20483;-58
2022/10/18 02:29:52;;;;;;;77.90;29.23;;;;;;;;;;5050435;28;20533;-57
2022/10/18 02:32:22;;;;;;;80.78;27.95;;;;;;;;;;5052593;28;20091;-58
2022/10/18 02:34:56;;;;;;;94.57;30.92;;;;;;;;;;5052187;28;20121;-58
2022/10/18 02:37:23;;;;;;;89.90;26.80;;;;;;;;;;5052621;28;20068;-58
2022/10/18 02:39:50;;;;;;;84.75;27.65;;;;;;;;;;5052358;28;20377;-60
2022/10/18 02:42:16;;;;;;;94.03;29.15;;;;;;;;;;5050258;28;20073;-59
2022/10/18 02:44:43;;;;;;;103.75;30.65;;;;;;;;;;5071284;28;20043;-59
2022/10/18 02:47:10;;;;;;;141.18;34.75;;;;;;;;;;5056629;28;20060;-59
2022/10/18 02:49:37;;;;;;;94.03;29.38;;;;;;;;;;5052357;28;20045;-59
2022/10/18 02:52:03;;;;;;;85.57;29.17;;;;;;;;;;5052494;28;20041;-59
2022/10/18 02:54:30;;;;;;;98.25;29.02;;;;;;;;;;5050737;28;20051;-59
2022/10/18 02:56:56;;;;;;;79.80;28.63;;;;;;;;;;5060741;28;20048;-59
2022/10/18 02:59:23;;;;;;;99.13;29.83;;;;;;;;;;5053753;28;20037;-59
2022/10/18 03:01:49;;;;;;;80.88;29.63;;;;;;;;;;5052333;28;20045;-59
2022/10/18 03:04:16;;;;;;;80.28;27.35;;;;;;;;;;5051871;28;20064;-59
2022/10/18 03:06:42;;;;;;;105.95;30.33;;;;;;;;;;5051975;28;20044;-59
2022/10/18 03:09:09;;;;;;;100.10;30.83;;;;;;;;;;5048254;28;20698;-58
2022/10/18 03:11:35;;;;;;;139.45;32.03;;;;;;;;;;5054314;28;20075;-62
2022/10/18 03:14:01;;;;;;;70.45;28.25;;;;;;;;;;5052755;28;20041;-61
2022/10/18 03:16:28;;;;;;;84.97;29.13;;;;;;;;;;5051925;28;20115;-61
2022/10/18 03:18:54;;;;;;;110.63;30.98;;;;;;;;;;5051689;28;20447;-62
2022/10/18 03:21:21;;;;;;;95.25;28.13;;;;;;;;;;5050535;28;20063;-61
2022/10/18 03:23:47;;;;;;;79.85;28.55;;;;;;;;;;5050881;28;20041;-61
2022/10/18 03:26:14;;;;;;;93.32;29.80;;;;;;;;;;5063389;28;20515;-61
2022/10/18 03:28:40;;;;;;;99.28;28.52;;;;;;;;;;5058577;28;20052;-61
2022/10/18 03:31:07;;;;;;;104.30;31.00;;;;;;;;;;5051986;28;20048;-61
2022/10/18 03:33:33;;;;;;;118.72;32.05;;;;;;;;;;5055169;28;20444;-64
2022/10/18 03:36:00;;;;;;;92.50;31.38;;;;;;;;;;5052642;28;21219;-63
2022/10/18 03:38:26;;;;;;;91.30;31.52;;;;;;;;;;5055717;28;20059;-63
2022/10/18 03:40:53;;;;;;;120.95;33.65;;;;;;;;;;5055096;28;20040;-63
2022/10/18 03:43:19;;;;;;;83.55;31.55;;;;;;;;;;5068322;28;20052;-61
2022/10/18 03:45:46;;;;;;;81.80;29.90;;;;;;;;;;5055469;28;20041;-61
2022/10/18 03:48:12;;;;;;;120.88;32.10;;;;;;;;;;5051838;28;20047;-61
2022/10/18 03:50:39;;;;;;;125.57;32.97;;;;;;;;;;5054356;28;20495;-61
2022/10/18 03:53:05;;;;;;;76.97;27.92;;;;;;;;;;5055470;28;20044;-61
2022/10/18 03:55:32;;;;;;;85.90;28.38;;;;;;;;;;5055350;28;20037;-62
2022/10/18 03:57:58;;;;;;;92.68;28.17;;;;;;;;;;5066440;28;20071;-62
2022/10/18 04:00:25;;;;;;;105.40;27.52;;;;;;;;;;5053522;28;20033;-58
2022/10/18 04:02:52;;;;;;;85.80;26.42;;;;;;;;;;5052677;28;20045;-59
2022/10/18 04:05:26;;;;;;;77.07;25.27;;;;;;;;;;5054779;28;20057;-58
2022/10/18 04:07:53;;;;;;;81.63;25.75;;;;;;;;;;5055159;28;20472;-58
2022/10/18 04:10:20;;;;;;;96.88;27.75;;;;;;;;;;5055077;28;20052;-60
2022/10/18 04:12:46;;;;;;;118.13;28.10;;;;;;;;;;5054613;28;20039;-60
2022/10/18 04:15:13;;;;;;;89.70;24.83;;;;;;;;;;5052025;28;20067;-61
2022/10/18 04:17:39;;;;;;;82.15;26.27;;;;;;;;;;5053772;28;20048;-60
2022/10/18 04:20:06;;;;;;;61.38;24.63;;;;;;;;;;5054643;28;20048;-60
2022/10/18 04:22:32;;;;;;;100.57;25.52;;;;;;;;;;5055029;28;20160;-59
2022/10/18 04:25:00;;;;;;;78.07;23.70;;;;;;;;;;5056203;28;20037;-60
2022/10/18 04:27:26;;;;;;;67.07;23.10;;;;;;;;;;5070206;28;20906;-60
2022/10/18 04:29:53;;;;;;;58.30;21.90;;;;;;;;;;5052608;28;20041;-60
2022/10/18 04:32:19;;;;;;;98.95;25.85;;;;;;;;;;5053856;28;20131;-60
2022/10/18 04:34:45;;;;;;;94.15;24.73;;;;;;;;;;5054319;28;20033;-60
2022/10/18 04:37:12;;;;;;;80.90;24.17;;;;;;;;;;5054552;28;20045;-60
2022/10/18 04:39:38;;;;;;;88.95;25.45;;;;;;;;;;5054443;28;20476;-59
2022/10/18 04:42:05;;;;;;;71.97;24.67;;;;;;;;;;5056500;28;20059;-58
2022/10/18 04:44:31;;;;;;;117.85;27.40;;;;;;;;;;5053855;28;20491;-58
2022/10/18 04:46:58;;;;;;;73.88;25.20;;;;;;;;;;5054515;28;20404;-58
2022/10/18 04:49:24;;;;;;;76.03;24.23;;;;;;;;;;5052723;28;20021;-58
2022/10/18 04:51:51;;;;;;;70.35;25.63;;;;;;;;;;5054064;28;20039;-59
2022/10/18 04:54:17;;;;;;;111.35;26.90;;;;;;;;;;5060673;28;20049;-58
2022/10/18 04:56:44;;;;;;;116.70;27.88;;;;;;;;;;5053295;28;20094;-58
2022/10/18 04:59:10;;;;;;;98.35;25.90;;;;;;;;;;5054163;28;20033;-59
2022/10/18 05:01:37;;;;;;;149.52;28.17;;;;;;;;;;5053713;28;20052;-59
2022/10/18 05:04:03;;;;;;;131.77;26.05;;;;;;;;;;5059561;28;20436;-59
2022/10/18 05:06:30;;;;;;;95.60;24.67;;;;;;;;;;5053128;28;20041;-59
2022/10/18 05:08:56;;;;;;;72.55;23.92;;;;;;;;;;5051378;28;20049;-59
2022/10/18 05:11:23;;;;;;;130.02;27.42;;;;;;;;;;5053477;28;20041;-58
2022/10/18 05:13:49;;;;;;;106.65;25.08;;;;;;;;;;5053711;28;20461;-58
2022/10/18 05:16:16;;;;;;;113.72;26.52;;;;;;;;;;5053934;28;20068;-58
2022/10/18 05:18:43;;;;;;;118.35;27.25;;;;;;;;;;5053457;28;20044;-58
2022/10/18 05:21:11;;;;;;;91.43;24.70;;;;;;;;;;5050065;28;20037;-58
2022/10/18 05:23:37;;;;;;;80.63;24.48;;;;;;;;;;5053237;28;20504;-58
2022/10/18 05:26:05;;;;;;;115.38;26.73;;;;;;;;;;5063226;28;20404;-58
2022/10/18 05:28:31;;;;;;;97.88;25.30;;;;;;;;;;5061753;28;20132;-58
2022/10/18 05:31:05;;;;;;;75.50;23.30;;;;;;;;;;5054347;28;20037;-59
2022/10/18 05:33:32;;;;;;;147.45;26.98;;;;;;;;;;5051780;28;20124;-59
2022/10/18 05:35:59;;;;;;;133.93;26.52;;;;;;;;;;5050825;28;20126;-59
2022/10/18 05:38:26;;;;;;;94.97;25.70;;;;;;;;;;5067558;28;20051;-59
2022/10/18 05:40:52;;;;;;;109.45;24.63;;;;;;;;;;5064269;28;20049;-59
2022/10/18 05:43:19;;;;;;;72.00;21.95;;;;;;;;;;5053097;28;20040;-59
2022/10/18 05:45:49;;;;;;;81.93;22.52;;;;;;;;;;5053862;28;20032;-59
2022/10/18 05:48:15;;;;;;;128.82;26.35;;;;;;;;;;5049217;28;20053;-59
2022/10/18 05:50:42;;;;;;;78.53;22.95;;;;;;;;;;5052619;28;20079;-59
2022/10/18 05:53:09;;;;;;;167.18;26.75;;;;;;;;;;5053196;28;20037;-59
2022/10/18 05:55:50;;;;;;;100.70;23.52;;;;;;;;;;5057610;28;20037;-59
2022/10/18 05:58:16;;;;;;;81.93;20.83;;;;;;;;;;5053352;28;20048;-59
2022/10/18 06:00:43;;;;;;;153.80;24.02;;;;;;;;;;5065038;28;20050;-59
2022/10/18 06:03:09;;;;;;;142.13;23.38;;;;;;;;;;5048240;28;20048;-59
2022/10/18 06:05:35;;;;;;;100.28;20.90;;;;;;;;;;5053437;28;20041;-58
2022/10/18 06:08:02;;;;;;;122.18;22.95;;;;;;;;;;5052606;28;20045;-59
2022/10/18 06:10:37;;;;;;;141.07;22.55;;;;;;;;;;5052528;28;20041;-58
2022/10/18 06:13:03;;;;;;;64.93;19.67;;;;;;;;;;5053391;28;20037;-58
2022/10/18 06:15:30;;;;;;;104.70;19.80;;;;;;;;;;5050096;28;20044;-59
2022/10/18 06:17:57;;;;;;;68.82;17.40;;;;;;;;;;5049821;28;20052;-58
2022/10/18 06:20:24;;;;;;;113.05;19.50;;;;;;;;;;5052663;28;20048;-59
2022/10/18 06:22:51;;;;;;;105.55;18.67;;;;;;;;;;5052932;28;20037;-59
2022/10/18 06:25:18;;;;;;;81.20;17.23;;;;;;;;;;5056902;28;20553;-59
2022/10/18 06:27:44;;;;;;;100.63;17.92;;;;;;;;;;5067819;28;20063;-59
2022/10/18 06:30:11;;;;;;;81.30;18.10;;;;;;;;;;5049233;28;20480;-59
2022/10/18 06:32:37;;;;;;;94.95;20.45;;;;;;;;;;5052179;28;20041;-59
2022/10/18 06:35:04;;;;;;;49.05;16.08;;;;;;;;;;5053100;28;20041;-59
2022/10/18 06:37:31;;;;;;;100.97;15.93;;;;;;;;;;5052561;28;20043;-59
2022/10/18 06:39:57;;;;;;;54.75;12.93;;;;;;;;;;5078628;28;20036;-59
2022/10/18 06:42:24;;;;;;;89.85;14.07;;;;;;;;;;5050451;28;20041;-59
2022/10/18 06:44:50;;;;;;;83.57;13.00;;;;;;;;;;5050558;28;20041;-59
2022/10/18 06:47:17;;;;;;;47.22;11.50;;;;;;;;;;5052438;28;20041;-59
2022/10/18 06:49:43;;;;;;;58.58;11.27;;;;;;;;;;5052404;28;20044;-59
2022/10/18 06:52:10;;;;;;;60.03;11.20;;;;;;;;;;5064326;28;20047;-59
2022/10/18 06:54:36;;;;;;;68.65;12.13;;;;;;;;;;5051747;28;20579;-60
2022/10/18 06:57:03;;;;;;;43.88;10.32;;;;;;;;;;5052170;28;20052;-59
2022/10/18 06:59:29;;;;;;;39.47;10.32;;;;;;;;;;5051864;28;20041;-59
2022/10/18 07:01:56;;;;;;;42.75;9.75;;;;;;;;;;5052287;28;20037;-59
2022/10/18 07:04:26;;;;;;;59.38;10.90;;;;;;;;;;5052174;28;20052;-58
2022/10/18 07:06:53;;;;;;;48.80;11.10;;;;;;;;;;5054643;28;20877;-59
2022/10/18 07:09:19;;;;;;;63.03;11.25;;;;;;;;;;5053250;28;20049;-59
2022/10/18 07:11:46;;;;;;;37.65;9.77;;;;;;;;;;5055331;28;20037;-59
2022/10/18 07:14:12;;;;;;;64.95;10.90;;;;;;;;;;5055650;28;20049;-59
2022/10/18 07:16:41;;;;;;;55.35;11.18;;;;;;;;;;5055836;28;20059;-59
2022/10/18 07:19:08;;;;;;;58.97;11.25;;;;;;;;;;5055915;28;20044;-59
2022/10/18 07:21:35;;;;;;;86.97;12.98;;;;;;;;;;5054117;28;20090;-59
2022/10/18 07:24:01;;;;;;;61.65;11.48;;;;;;;;;;5052770;28;20037;-59
2022/10/18 07:26:32;;;;;;;82.80;12.02;;;;;;;;;;5069078;28;20146;-59
2022/10/18 07:28:59;;;;;;;97.65;14.43;;;;;;;;;;5060650;28;20542;-59
2022/10/18 07:31:26;;;;;;;49.85;11.02;;;;;;;;;;5056299;28;20047;-59
2022/10/18 07:33:53;;;;;;;26.40;9.93;;;;;;;;;;5056002;28;20036;-58
2022/10/18 07:36:23;;;;;;;84.03;12.30;;;;;;;;;;5065132;28;20043;-59
2022/10/18 07:38:52;;;;;;;38.22;9.70;;;;;;;;;;5054533;28;20045;-59
2022/10/18 07:41:19;;;;;;;34.00;9.77;;;;;;;;;;5056037;28;20041;-60
2022/10/18 07:43:46;;;;;;;66.70;11.52;;;;;;;;;;5064265;28;20044;-60
2022/10/18 07:46:14;;;;;;;40.55;10.82;;;;;;;;;;5066859;28;20493;-59
2022/10/18 07:48:41;;;;;;;71.93;12.68;;;;;;;;;;5054984;28;20036;-59
2022/10/18 07:51:07;;;;;;;73.00;12.80;;;;;;;;;;5057529;28;20048;-59
2022/10/18 07:53:34;;;;;;;48.70;11.65;;;;;;;;;;5055489;28;20892;-59
2022/10/18 07:56:02;;;;;;;40.28;11.32;;;;;;;;;;5055378;28;20036;-55
2022/10/18 07:58:34;;;;;;;89.00;13.60;;;;;;;;;;5054822;28;20110;-53
2022/10/18 08:01:01;;;;;;;41.53;11.32;;;;;;;;;;5056056;28;20040;-58
2022/10/18 08:03:28;;;;;;;49.88;11.90;;;;;;;;;;5053168;28;20041;-58
2022/10/18 08:05:54;;;;;;;73.95;13.77;;;;;;;;;;5053076;28;20029;-58
2022/10/18 08:08:21;;;;;;;84.15;13.68;;;;;;;;;;5055148;28;20072;-58
2022/10/18 08:10:48;;;;;;;62.95;13.25;;;;;;;;;;5055123;28;20040;-58
2022/10/18 08:13:15;;;;;;;56.58;12.95;;;;;;;;;;5054755;28;20401;-59
2022/10/18 08:15:42;;;;;;;61.17;14.68;;;;;;;;;;5055065;28;20036;-59
2022/10/18 08:18:08;;;;;;;51.58;13.60;;;;;;;;;;5055117;28;20055;-58
2022/10/18 08:20:35;;;;;;;104.85;16.05;;;;;;;;;;5054388;28;20041;-58
2022/10/18 08:23:03;;;;;;;39.33;12.27;;;;;;;;;;5055195;28;20036;-58
2022/10/18 08:25:29;;;;;;;41.35;11.88;;;;;;;;;;5059891;28;20365;-58
2022/10/18 08:27:56;;;;;;;53.00;12.20;;;;;;;;;;5069976;28;20040;-58
2022/10/18 08:30:23;;;;;;;82.28;14.43;;;;;;;;;;5070842;28;20043;-58
2022/10/18 08:32:49;;;;;;;70.70;14.32;;;;;;;;;;5053162;28;20049;-58
2022/10/18 08:35:16;;;;;;;89.30;15.68;;;;;;;;;;5054181;28;20342;-58
2022/10/18 08:37:44;;;;;;;46.90;12.27;;;;;;;;;;5061573;28;20048;-58
2022/10/18 08:40:13;;;;;;;62.53;13.32;;;;;;;;;;5054569;28;20106;-58
2022/10/18 08:42:46;;;;;;;92.57;15.20;;;;;;;;;;5053785;28;20074;-58
2022/10/18 08:45:13;;;;;;;60.57;13.27;;;;;;;;;;5067147;28;20098;-59
2022/10/18 08:48:00;;;;;;;77.85;14.63;;;;;;;;;;5067305;28;20033;-58
2022/10/18 08:50:34;;;;;;;65.93;13.25;;;;;;;;;;5055577;28;20098;-58
2022/10/18 08:53:00;;;;;;;66.60;15.32;;;;;;;;;;5054317;28;20044;-58
2022/10/18 08:55:35;;;;;;;84.57;15.98;;;;;;;;;;5053751;28;20049;-59
2022/10/18 08:58:04;;;;;;;154.23;19.98;;;;;;;;;;5054659;28;20511;-58
2022/10/18 09:00:33;;;;;;;93.90;17.15;;;;;;;;;;5052205;28;20497;-59
2022/10/18 09:03:00;;;;;;;80.47;15.98;;;;;;;;;;5051337;28;20041;-58
2022/10/18 09:05:30;;;;;;;41.10;13.85;;;;;;;;;;5054619;28;20041;-59
2022/10/18 09:08:12;;;;;;;53.13;14.65;;;;;;;;;;5053922;28;20037;-59
2022/10/18 09:10:38;;;;;;;71.25;15.68;;;;;;;;;;5053366;28;20059;-58
2022/10/18 09:13:23;;;;;;;64.45;14.23;;;;;;;;;;5053846;28;20512;-59
2022/10/18 09:15:50;;;;;;;92.20;17.88;;;;;;;;;;5053516;28;20037;-59
2022/10/18 09:18:16;;;;;;;58.33;15.05;;;;;;;;;;5050012;28;20800;-58
2022/10/18 09:20:56;;;;;;;71.20;16.25;;;;;;;;;;5052936;28;20044;-59
2022/10/18 09:23:33;;;;;;;45.78;14.80;;;;;;;;;;5053388;28;20463;-58
2022/10/18 09:26:10;;;;;;;53.25;14.48;;;;;;;;;;5062872;28;20052;-59
2022/10/18 09:28:36;;;;;;;58.70;14.18;;;;;;;;;;5061928;28;20148;-58
2022/10/18 09:31:06;;;;;;;73.10;15.55;;;;;;;;;;5053424;28;20036;-58
2022/10/18 09:33:33;;;;;;;86.65;16.33;;;;;;;;;;5077508;28;20045;-58
2022/10/18 09:36:01;;;;;;;53.65;15.10;;;;;;;;;;5051018;28;20049;-58
2022/10/18 09:38:30;;;;;;;114.75;17.38;;;;;;;;;;5052784;28;20115;-58
2022/10/18 09:41:01;;;;;;;78.25;15.18;;;;;;;;;;5053828;28;20049;-58
2022/10/18 09:43:38;;;;;;;51.95;14.02;;;;;;;;;;5053605;28;20037;-58
2022/10/18 09:46:05;;;;;;;44.03;13.60;;;;;;;;;;5056511;28;20058;-59
2022/10/18 09:48:52;;;;;;;74.45;16.92;;;;;;;;;;5066993;28;20045;-58
2022/10/18 09:51:21;;;;;;;100.22;18.35;;;;;;;;;;5027199;28;20069;-58
2022/10/18 09:53:47;;;;;;;53.47;15.75;;;;;;;;;;5047123;28;20053;-58
2022/10/18 09:56:16;;;;;;;73.03;16.08;;;;;;;;;;5046264;28;20098;-59
2022/10/18 09:58:47;;;;;;;66.00;15.60;;;;;;;;;;5046078;28;20055;-58
2022/10/18 10:01:15;;;;;;;58.60;15.18;;;;;;;;;;5046964;28;20040;-58
2022/10/18 10:03:42;;;;;;;95.45;17.48;;;;;;;;;;5045424;28;20045;-58
2022/10/18 10:06:11;;;;;;;52.85;14.50;;;;;;;;;;5046888;28;20056;-59
2022/10/18 10:08:42;;;;;;;74.35;16.40;;;;;;;;;;5045813;28;20065;-58
2022/10/18 10:11:25;;;;;;;60.47;15.65;;;;;;;;;;5046123;28;20414;-59
2022/10/18 10:13:52;;;;;;;43.22;14.68;;;;;;;;;;5046096;28;20044;-58
2022/10/18 10:16:19;;;;;;;65.18;16.35;;;;;;;;;;5045660;28;20053;-59
2022/10/18 10:18:51;;;;;;;68.93;16.63;;;;;;;;;;5045665;28;20044;-58
2022/10/18 10:21:18;;;;;;;67.55;15.32;;;;;;;;;;5046224;28;20053;-58
2022/10/18 10:23:49;;;;;;;78.80;16.48;;;;;;;;;;5045779;28;20071;-59
2022/10/18 10:26:23;;;;;;;68.60;16.52;;;;;;;;;;5046542;28;20033;-58
2022/10/18 10:28:50;;;;;;;111.47;19.13;;;;;;;;;;5050811;28;20497;-59
2022/10/18 10:31:20;;;;;;;57.22;15.05;;;;;;;;;;5052815;28;20041;-59
2022/10/18 10:33:46;;;;;;;61.30;15.65;;;;;;;;;;5078540;28;20045;-59
2022/10/18 10:36:17;;;;;;;75.28;17.33;;;;;;;;;;5049632;28;20500;-58
2022/10/18 10:38:43;;;;;;;68.32;17.10;;;;;;;;;;5050296;28;20580;-59
2022/10/18 10:41:20;;;;;;;96.30;22.52;;;;;;;;;;5057292;28;20044;-59
2022/10/18 10:43:47;;;;;;;127.18;22.40;;;;;;;;;;5056395;28;20052;-59
2022/10/18 10:46:17;;;;;;;59.55;15.43;;;;;;;;;;5057450;28;20043;-58
2022/10/18 10:48:54;;;;;;;90.18;17.73;;;;;;;;;;5071795;28;20044;-59
2022/10/18 10:51:39;;;;;;;80.25;17.73;;;;;;;;;;5055669;28;20036;-59
2022/10/18 10:54:14;;;;;;;64.05;18.83;;;;;;;;;;5053117;28;20071;-59
2022/10/18 10:56:53;;;;;;;69.57;17.55;;;;;;;;;;5056399;28;20063;-58
2022/10/18 10:59:21;;;;;;;99.57;19.35;;;;;;;;;;5056043;28;20119;-59
2022/10/18 11:01:50;;;;;;;78.68;17.55;;;;;;;;;;5056427;28;20039;-59
2022/10/18 11:04:29;;;;;;;76.75;16.45;;;;;;;;;;5056525;28;20155;-59
2022/10/18 11:07:02;;;;;;;80.22;16.95;;;;;;;;;;5055821;28;20547;-59
2022/10/18 11:09:35;;;;;;;88.75;17.67;;;;;;;;;;5053685;28;20041;-59
2022/10/18 11:12:04;;;;;;;141.18;19.65;;;;;;;;;;5053971;28;20459;-59
2022/10/18 11:14:35;;;;;;;54.05;14.77;;;;;;;;;;5056008;28;20047;-59
2022/10/18 11:17:06;;;;;;;40.78;15.15;;;;;;;;;;5055718;28;20036;-59
2022/10/18 11:19:57;;;;;;;128.02;20.20;;;;;;;;;;5055977;28;20404;-59
2022/10/18 11:22:25;;;;;;;60.10;16.30;;;;;;;;;;5052573;28;20568;-59
2022/10/18 11:24:51;;;;;;;80.03;16.58;;;;;;;;;;5055579;28;20036;-59
2022/10/18 11:27:20;;;;;;;63.03;16.95;;;;;;;;;;5071932;28;20045;-59
2022/10/18 11:29:53;;;;;;;71.00;16.05;;;;;;;;;;5060061;28;20110;-59
2022/10/18 11:32:19;;;;;;;81.22;27.52;;;;;;;;;;5061172;28;20055;-59
2022/10/18 11:34:58;;;;;;;57.15;16.63;;;;;;;;;;5054925;28;20041;-59
2022/10/18 11:37:25;;;;;;;235.88;23.70;;;;;;;;;;5056362;28;20029;-59
2022/10/18 11:40:05;;;;;;;81.75;16.08;;;;;;;;;;5055442;28;20075;-59
2022/10/18 11:42:36;;;;;;;258.38;27.10;;;;;;;;;;5053299;28;20040;-58
2022/10/18 11:45:08;;;;;;;87.88;16.48;;;;;;;;;;5053577;28;20663;-58
2022/10/18 11:47:42;;;;;;;53.92;15.30;;;;;;;;;;5067023;28;20040;-59
2022/10/18 11:50:09;;;;;;;48.15;14.40;;;;;;;;;;5059253;28;20033;-59
2022/10/18 11:52:46;;;;;;;81.93;17.08;;;;;;;;;;5053600;28;20045;-60
2022/10/18 11:55:18;;;;;;;78.22;17.05;;;;;;;;;;5053325;28;20048;-60
2022/10/18 11:57:49;;;;;;;121.63;18.17;;;;;;;;;;5055143;28;20120;-60
2022/10/18 12:00:18;;;;;;;53.97;15.43;;;;;;;;;;5067777;28;20054;-59
2022/10/18 12:03:00;;;;;;;65.57;17.08;;;;;;;;;;5054314;28;20049;-59
2022/10/18 12:05:27;;;;;;;41.85;14.32;;;;;;;;;;5054660;28;20037;-59
2022/10/18 12:08:03;;;;;;;57.10;15.55;;;;;;;;;;5054972;28;20037;-60
2022/10/18 12:10:31;;;;;;;82.13;17.10;;;;;;;;;;5055044;28;20048;-59
2022/10/18 12:13:24;;;;;;;170.82;21.80;;;;;;;;;;5054970;28;20044;-59
2022/10/18 12:15:51;;;;;;;353.77;33.60;;;;;;;;;;5055425;28;20041;-59
2022/10/18 12:18:20;;;;;;;90.22;25.42;;;;;;;;;;5050564;28;20421;-60
2022/10/18 12:20:48;;;;;;;61.65;15.95;;;;;;;;;;5054365;28;20059;-60
2022/10/18 12:23:16;;;;;;;46.83;15.05;;;;;;;;;;5054765;28;20045;-60
2022/10/18 12:25:51;;;;;;;154.00;21.95;;;;;;;;;;5061710;28;20044;-59
2022/10/18 12:28:32;;;;;;;105.68;18.77;;;;;;;;;;5066286;28;20037;-61
2022/10/18 12:31:06;;;;;;;98.20;16.08;;;;;;;;;;5061216;28;20039;-59
2022/10/18 12:33:36;;;;;;;102.43;18.42;;;;;;;;;;5059633;28;20485;-59
2022/10/18 12:36:21;;;;;;;147.52;19.52;;;;;;;;;;5052128;28;20052;-59
2022/10/18 12:38:51;;;;;;;95.28;17.25;;;;;;;;;;5054408;28;20045;-59
2022/10/18 12:41:23;;;;;;;163.00;21.42;;;;;;;;;;5053576;28;20128;-59
2022/10/18 12:43:55;;;;;;;64.55;14.93;;;;;;;;;;5055093;28;20041;-59
2022/10/18 12:46:22;;;;;;;100.13;18.08;;;;;;;;;;5060009;28;20124;-59
2022/10/18 12:49:00;;;;;;;83.72;16.35;;;;;;;;;;5053833;28;20051;-59
2022/10/18 12:51:26;;;;;;;90.18;17.67;;;;;;;;;;5051785;28;20124;-59
2022/10/18 12:53:59;;;;;;;54.70;15.80;;;;;;;;;;5053051;28;20056;-59
2022/10/18 12:56:28;;;;;;;146.43;19.10;;;;;;;;;;5053913;28;20036;-59
2022/10/18 12:59:13;;;;;;;87.38;18.23;;;;;;;;;;5053800;28;20040;-59
2022/10/18 13:02:03;;;;;;;78.18;16.15;;;;;;;;;;5054324;28;20045;-59
2022/10/18 13:04:31;;;;;;;103.13;17.70;;;;;;;;;;5049778;28;20053;-59
2022/10/18 13:07:01;;;;;;;64.10;16.25;;;;;;;;;;5054568;28;20040;-58
2022/10/18 13:09:38;;;;;;;63.13;16.58;;;;;;;;;;5051396;28;20075;-58
2022/10/18 13:12:07;;;;;;;65.85;15.85;;;;;;;;;;5051319;28;20048;-58
2022/10/18 13:14:37;;;;;;;65.00;15.40;;;;;;;;;;5054037;28;20065;-59
2022/10/18 13:17:24;;;;;;;156.95;21.83;;;;;;;;;;5053102;28;20493;-58
2022/10/18 13:19:51;;;;;;;61.30;15.37;;;;;;;;;;5053684;28;20043;-58
2022/10/18 13:22:58;;;;;;;90.00;17.52;;;;;;;;;;5053291;28;20981;-59
2022/10/18 13:25:28;;;;;;;56.75;15.82;;;;;;;;;;5058241;28;20648;-58
2022/10/18 13:27:54;;;;;;;72.35;17.42;;;;;;;;;;5081206;28;20123;-58
2022/10/18 13:30:40;;;;;;;60.03;17.08;;;;;;;;;;5064046;28;20041;-58
2022/10/18 13:33:21;;;;;;;65.05;17.58;;;;;;;;;;5050725;28;20040;-59
2022/10/18 13:35:56;;;;;;;48.58;15.48;;;;;;;;;;5053077;28;20052;-59
2022/10/18 13:38:37;;;;;;;77.50;18.13;;;;;;;;;;5053705;28;20045;-58
2022/10/18 13:41:07;;;;;;;54.47;15.85;;;;;;;;;;5053692;28;20106;-58
2022/10/18 13:43:52;;;;;;;91.07;18.80;;;;;;;;;;5052542;28;20497;-58
2022/10/18 13:46:19;;;;;;;49.95;16.58;;;;;;;;;;5059565;28;20045;-58
2022/10/18 13:48:50;;;;;;;109.57;19.42;;;;;;;;;;5052220;28;20336;-59
2022/10/18 13:51:36;;;;;;;99.20;19.85;;;;;;;;;;5053815;28;20156;-58
2022/10/18 13:54:02;;;;;;;66.07;18.42;;;;;;;;;;5067743;28;20052;-59
2022/10/18 13:56:38;;;;;;;66.38;16.95;;;;;;;;;;5055268;28;20044;-58
2022/10/18 13:59:04;;;;;;;48.53;17.00;;;;;;;;;;5053082;28;20040;-58
2022/10/18 14:02:12;;;;;;;54.38;16.40;;;;;;;;;;5052541;28;20488;-58
2022/10/18 14:04:57;;;;;;;157.60;23.10;;;;;;;;;;5036510;28;20148;-58
2022/10/18 14:07:44;;;;;;;141.77;22.83;;;;;;;;;;5032147;28;20053;-58
2022/10/18 14:10:23;;;;;;;61.00;17.67;;;;;;;;;;5045922;28;20041;-58
2022/10/18 14:13:32;;;;;;;54.92;17.45;;;;;;;;;;5045990;28;20139;-58
2022/10/18 14:16:05;;;;;;;56.55;17.02;;;;;;;;;;5045429;28;20041;-58
2022/10/18 14:18:33;;;;;;;79.45;19.95;;;;;;;;;;5045360;28;20047;-58
2022/10/18 14:21:05;;;;;;;63.70;19.40;;;;;;;;;;5046906;28;20053;-58
2022/10/18 14:23:43;;;;;;;159.68;25.33;;;;;;;;;;5045558;28;20175;-58
2022/10/18 14:26:17;;;;;;;70.57;19.67;;;;;;;;;;5048998;28;20063;-58
2022/10/18 14:28:43;;;;;;;;;;;;;;;;;;5054023;28;20049;-58